Time;durP1;ratioP1;P1;durP2;ratioP2;P2;SDS_P1;SDS_P2;PMS_P1;PMS_P2;Temp;Humidity;BMP_temperature;BMP_pressure;BME280_temperature;BME280_humidity;BME280_pressure;Samples;Min_cycle;Max_cycle;Signal;HPM_P1;HPM_P2
2022/04/10 00:01:51;;;;;;;6.68;2.17;;;;;;;11.34;35.99;101393.44;5004259;28;20050;-85
2022/04/10 00:04:19;;;;;;;4.07;2.50;;;;;;;11.33;35.93;101397.97;5007339;28;20054;-85
2022/04/10 00:06:45;;;;;;;5.03;2.40;;;;;;;11.31;36.21;101394.47;5004483;28;20160;-85
2022/04/10 00:09:13;;;;;;;4.10;2.15;;;;;;;11.28;35.99;101400.09;5002133;28;20086;-84
2022/04/10 00:11:40;;;;;;;3.70;2.20;;;;;;;11.28;35.95;101405.53;5008044;28;20058;-85
2022/04/10 00:14:07;;;;;;;4.22;2.45;;;;;;;11.26;35.85;101403.91;5006818;28;20084;-84
2022/04/10 00:16:34;;;;;;;4.38;2.25;;;;;;;11.23;36.12;101401.34;5005699;28;20054;-84
2022/04/10 00:19:04;;;;;;;5.32;2.30;;;;;;;11.21;36.19;101403.28;4995399;28;20520;-84
2022/04/10 00:21:32;;;;;;;5.15;2.30;;;;;;;11.20;36.07;101407.00;5005320;28;20050;-84
2022/04/10 00:23:59;;;;;;;3.67;2.08;;;;;;;11.18;35.96;101408.91;5003941;28;20493;-85
2022/04/10 00:26:26;;;;;;;4.03;2.20;;;;;;;11.16;36.39;101408.13;5006247;28;20112;-85
2022/04/10 00:28:53;;;;;;;4.88;2.60;;;;;;;11.13;36.49;101406.47;5022858;28;20065;-85
2022/04/10 00:31:20;;;;;;;3.80;2.17;;;;;;;11.12;36.28;101407.44;5007418;28;20149;-84
2022/04/10 00:33:46;;;;;;;4.72;1.90;;;;;;;11.10;36.51;101408.50;5011715;28;20497;-84
2022/04/10 00:36:13;;;;;;;4.93;2.40;;;;;;;11.08;36.21;101414.03;5026592;28;20123;-85
2022/04/10 00:38:40;;;;;;;3.95;2.10;;;;;;;11.07;36.67;101412.28;5011549;28;20096;-85
2022/04/10 00:41:07;;;;;;;3.55;2.05;;;;;;;11.05;36.43;101404.22;5007174;28;20057;-84
2022/04/10 00:43:36;;;;;;;4.82;2.60;;;;;;;11.05;36.39;101406.06;5006953;28;20046;-86
2022/04/10 00:46:03;;;;;;;5.90;2.42;;;;;;;11.03;36.63;101405.28;5012038;28;20053;-84
2022/04/10 00:48:29;;;;;;;5.57;2.45;;;;;;;11.02;36.61;101404.41;5013031;28;20050;-84
2022/04/10 00:53:43;;;;;;;4.82;2.30;;;;;;;11.00;36.46;101413.63;4999813;28;20464;-84
2022/04/10 00:56:10;;;;;;;4.05;2.20;;;;;;;11.00;36.66;101410.91;5005420;28;20050;-84
2022/04/10 00:58:37;;;;;;;3.92;2.22;;;;;;;10.98;36.61;101415.53;5009917;28;20132;-84
2022/04/10 01:01:03;;;;;;;4.72;2.60;;;;;;;10.97;36.62;101419.22;5001036;28;20074;-83
2022/04/10 01:03:30;;;;;;;6.07;2.35;;;;;;;10.96;36.68;101417.47;5004843;28;20555;-85
2022/04/10 01:05:57;;;;;;;4.55;2.30;;;;;;;10.95;36.99;101418.47;4997562;28;20058;-85
2022/04/10 01:08:23;;;;;;;6.22;2.70;;;;;;;10.94;36.68;101420.31;5004581;28;20070;-85
2022/04/10 01:10:50;;;;;;;4.68;2.20;;;;;;;10.93;36.84;101415.81;5021797;28;20111;-85
2022/04/10 01:13:17;;;;;;;4.88;2.28;;;;;;;10.92;36.74;101405.03;5007867;28;20133;-85
2022/04/10 01:15:44;;;;;;;4.32;2.70;;;;;;;10.93;36.83;101420.38;5008670;28;20061;-86
2022/04/10 01:18:11;;;;;;;6.10;2.30;;;;;;;10.93;36.90;101414.94;5010137;28;20465;-85
2022/04/10 01:20:38;;;;;;;4.03;2.20;;;;;;;10.92;36.78;101421.34;5009738;28;20057;-85
2022/04/10 01:23:06;;;;;;;5.07;2.42;;;;;;;10.91;36.88;101411.44;5026432;28;20402;-85
2022/04/10 01:25:33;;;;;;;5.00;2.60;;;;;;;10.91;37.01;101414.16;5008063;28;20436;-85
2022/04/10 01:28:01;;;;;;;6.10;2.42;;;;;;;10.89;36.60;101410.66;5009420;28;20445;-85
2022/04/10 01:30:29;;;;;;;4.43;2.22;;;;;;;10.89;36.71;101419.69;5003422;28;20129;-85
2022/04/10 01:32:57;;;;;;;4.35;2.33;;;;;;;10.87;36.72;101418.88;4998714;28;20148;-85
2022/04/10 01:35:25;;;;;;;3.90;2.00;;;;;;;10.87;36.87;101413.44;5001960;28;20053;-85
2022/04/10 01:37:54;;;;;;;5.78;2.40;;;;;;;10.88;36.87;101414.31;5010870;28;20125;-85
2022/04/10 01:40:21;;;;;;;4.22;1.90;;;;;;;10.86;36.69;101417.16;5007601;28;20090;-84
2022/04/10 01:42:48;;;;;;;5.80;2.65;;;;;;;10.85;36.77;101414.53;5010826;28;20053;-85
2022/04/10 01:45:15;;;;;;;4.10;2.20;;;;;;;10.83;36.86;101405.59;5007445;28;20061;-85
2022/04/10 01:47:41;;;;;;;5.07;2.50;;;;;;;10.83;36.74;101411.03;5011537;28;20058;-85
2022/04/10 01:50:08;;;;;;;3.88;2.33;;;;;;;10.82;36.79;101409.25;5007635;28;20458;-84
2022/04/10 01:52:35;;;;;;;4.35;2.63;;;;;;;10.81;36.99;101411.09;5009464;28;20050;-85
2022/04/10 01:55:01;;;;;;;4.88;2.25;;;;;;;10.81;37.14;101408.38;5012188;28;20107;-85
2022/04/10 01:57:28;;;;;;;6.45;3.00;;;;;;;10.80;37.19;101406.63;5034989;28;20486;-85
2022/04/10 01:59:55;;;;;;;6.07;2.83;;;;;;;10.80;37.13;101412.06;5009583;28;20073;-85
2022/04/10 02:02:21;;;;;;;5.13;2.70;;;;;;;10.79;36.70;101407.59;5010955;28;20129;-85
2022/04/10 02:04:48;;;;;;;5.80;2.80;;;;;;;10.79;37.17;101409.47;5014761;28;20073;-85
2022/04/10 02:07:15;;;;;;;5.13;2.90;;;;;;;10.79;37.07;101415.75;5012253;28;20132;-85
2022/04/10 02:09:41;;;;;;;6.82;3.17;;;;;;;10.79;37.15;101409.47;5009477;28;20498;-85
2022/04/10 02:12:08;;;;;;;6.38;2.88;;;;;;;10.79;37.19;101409.47;5000977;28;20141;-85
2022/04/10 02:14:35;;;;;;;4.82;2.42;;;;;;;10.78;36.93;101415.88;5000489;28;20137;-85
2022/04/10 02:17:02;;;;;;;5.68;2.72;;;;;;;10.77;37.07;101409.56;5018430;28;20425;-85
2022/04/10 02:19:29;;;;;;;5.47;2.60;;;;;;;10.76;36.93;101415.94;5011814;28;20049;-85
2022/04/10 02:21:57;;;;;;;5.10;2.30;;;;;;;10.75;36.87;101422.34;5010065;28;20053;-85
2022/04/10 02:24:24;;;;;;;4.63;2.53;;;;;;;10.74;37.02;101423.31;5008711;28;20065;-85
2022/04/10 02:26:50;;;;;;;5.20;2.47;;;;;;;10.73;37.11;101424.25;5008318;28;20045;-84
2022/04/10 02:32:58;;;;;;;5.28;2.80;;;;;;;10.65;37.15;101429.25;5003265;28;20047;-85
2022/04/10 02:35:24;;;;;;;5.45;2.63;;;;;;;10.65;37.15;101423.84;5008080;28;20819;-85
2022/04/10 02:37:51;;;;;;;4.72;2.75;;;;;;;10.66;37.07;101439.16;5001029;28;20050;-85
2022/04/10 02:40:18;;;;;;;5.70;3.33;;;;;;;10.64;36.87;101428.38;5006425;28;20553;-85
2022/04/10 02:42:45;;;;;;;7.25;3.30;;;;;;;10.63;37.08;101433.91;5004592;28;20054;-85
2022/04/10 02:45:12;;;;;;;7.32;3.30;;;;;;;10.63;36.86;101436.63;5007875;28;20061;-85
2022/04/10 02:47:38;;;;;;;5.05;2.95;;;;;;;10.61;37.19;101444.88;5007012;28;20135;-85
2022/04/10 02:50:05;;;;;;;6.40;3.03;;;;;;;10.61;36.95;101438.56;5007631;28;20085;-85
2022/04/10 02:52:32;;;;;;;5.57;2.35;;;;;;;10.59;37.23;101441.38;5009729;28;20532;-85
2022/04/10 02:54:58;;;;;;;5.22;3.22;;;;;;;10.58;37.31;101438.72;5007393;28;20473;-85
2022/04/10 02:57:25;;;;;;;5.72;2.58;;;;;;;10.56;37.20;101446.97;5006487;28;20452;-84
2022/04/10 02:59:52;;;;;;;4.55;2.40;;;;;;;10.54;37.05;101446.16;5003542;28;20509;-85
2022/04/10 03:02:18;;;;;;;4.75;2.75;;;;;;;10.53;37.06;101449.00;5005788;28;20050;-85
2022/04/10 03:04:45;;;;;;;5.88;2.50;;;;;;;10.50;37.09;101444.59;4999153;28;20066;-84
2022/04/10 03:07:12;;;;;;;4.65;2.70;;;;;;;10.50;36.97;101449.16;4997751;28;20101;-85
2022/04/10 03:09:38;;;;;;;5.38;2.80;;;;;;;10.47;37.44;101454.75;5006445;28;20557;-85
2022/04/10 03:12:05;;;;;;;4.97;2.97;;;;;;;10.46;37.22;101459.31;5002496;28;20085;-84
2022/04/10 03:14:32;;;;;;;6.00;2.80;;;;;;;10.44;37.13;101455.81;4997550;28;20053;-85
2022/04/10 03:16:58;;;;;;;5.97;2.70;;;;;;;10.42;37.29;101460.44;5007945;28;20053;-85
2022/04/10 03:19:26;;;;;;;6.10;2.90;;;;;;;10.41;37.17;101458.69;5006599;28;20152;-85
2022/04/10 03:21:52;;;;;;;5.10;2.65;;;;;;;10.40;37.40;101459.66;4999971;28;20523;-84
2022/04/10 03:24:19;;;;;;;4.80;2.58;;;;;;;10.40;37.18;101454.22;5008282;28;20073;-84
2022/04/10 03:26:45;;;;;;;5.55;2.60;;;;;;;10.39;37.24;101459.72;5007114;28;20136;-84
2022/04/10 03:29:12;;;;;;;5.88;2.90;;;;;;;10.38;37.49;101460.72;4994611;28;20563;-85
2022/04/10 03:31:39;;;;;;;5.00;2.70;;;;;;;10.36;37.36;101458.09;5008415;28;20046;-85
2022/04/10 03:34:06;;;;;;;4.90;3.05;;;;;;;10.36;37.35;101460.81;5007316;28;20049;-85
2022/04/10 03:36:32;;;;;;;4.63;2.90;;;;;;;10.35;37.39;101458.19;5006629;28;20046;-85
2022/04/10 03:38:59;;;;;;;4.32;2.63;;;;;;;10.34;37.33;101454.59;5005173;28;20497;-85
2022/04/10 03:41:26;;;;;;;4.25;2.60;;;;;;;10.34;37.42;101461.84;5009287;28;20137;-85
2022/04/10 03:43:52;;;;;;;6.18;3.10;;;;;;;10.31;37.48;101462.88;5008542;28;20472;-85
2022/04/10 03:46:19;;;;;;;7.47;2.97;;;;;;;10.30;37.63;101462.00;5008707;28;20125;-84
2022/04/10 03:48:46;;;;;;;5.60;2.90;;;;;;;10.29;37.48;101471.09;5003249;28;20068;-85
2022/04/10 03:51:12;;;;;;;6.88;3.38;;;;;;;10.29;37.38;101470.25;5000333;28;20108;-85
2022/04/10 03:53:39;;;;;;;5.65;2.85;;;;;;;10.28;37.57;101472.09;5000833;28;20558;-85
2022/04/10 03:56:05;;;;;;;6.47;3.03;;;;;;;10.27;37.49;101472.19;5004127;28;20097;-85
2022/04/10 03:58:32;;;;;;;4.57;2.83;;;;;;;10.27;37.49;101472.19;5007623;28;20171;-84
2022/04/10 04:00:59;;;;;;;5.25;3.20;;;;;;;10.26;37.54;101486.69;5033027;28;20078;-84
2022/04/10 04:03:26;;;;;;;4.88;2.88;;;;;;;10.24;37.42;101481.34;5000589;28;20398;-85
2022/04/10 04:05:53;;;;;;;5.82;3.08;;;;;;;10.24;37.70;101480.47;5011729;28;20569;-84
2022/04/10 04:08:20;;;;;;;3.85;2.78;;;;;;;10.24;37.55;101489.50;5010624;28;20112;-85
2022/04/10 04:10:46;;;;;;;4.13;2.53;;;;;;;10.22;37.65;101491.41;5011272;28;20054;-85
2022/04/10 04:13:13;;;;;;;6.68;3.17;;;;;;;10.21;37.73;101496.94;5009800;28;20148;-84
2022/04/10 04:15:40;;;;;;;6.30;3.22;;;;;;;10.18;37.59;101497.97;5027475;28;20046;-84
2022/04/10 04:18:06;;;;;;;5.65;2.90;;;;;;;10.20;37.72;101503.34;5013340;28;20046;-85
2022/04/10 04:20:33;;;;;;;5.35;3.13;;;;;;;10.17;37.77;101501.66;5011982;28;20057;-85
2022/04/10 04:23:00;;;;;;;5.65;3.00;;;;;;;10.16;37.82;101499.00;5011057;28;20065;-84
2022/04/10 04:25:26;;;;;;;5.18;3.13;;;;;;;10.14;37.80;101503.59;5006821;28;20053;-84
2022/04/10 04:27:53;;;;;;;4.35;2.67;;;;;;;10.11;37.63;101509.22;5005384;28;20046;-85
2022/04/10 04:30:20;;;;;;;6.10;3.00;;;;;;;10.09;37.50;101512.00;5009472;28;20529;-85
2022/04/10 04:32:46;;;;;;;6.05;3.05;;;;;;;10.07;37.74;101519.34;5004567;28;20145;-84
2022/04/10 04:35:15;;;;;;;5.15;2.65;;;;;;;10.04;37.58;101521.38;5003569;28;20139;-85
2022/04/10 04:37:41;;;;;;;5.07;2.80;;;;;;;10.01;37.75;101525.13;5012833;28;20512;-85
2022/04/10 04:40:10;;;;;;;6.70;3.20;;;;;;;10.01;37.76;101526.94;5008362;28;20089;-85
2022/04/10 04:42:37;;;;;;;6.18;3.03;;;;;;;9.99;37.68;101529.75;5012143;28;20053;-85
2022/04/10 04:45:04;;;;;;;5.82;3.50;;;;;;;9.96;37.65;101529.06;5008780;28;20670;-85
2022/04/10 04:47:31;;;;;;;6.60;3.67;;;;;;;9.92;37.80;101536.47;5008317;28;20042;-84
2022/04/10 04:49:57;;;;;;;5.38;2.80;;;;;;;9.88;37.86;101538.44;5009702;28;20077;-85
2022/04/10 04:52:24;;;;;;;6.30;2.90;;;;;;;9.84;37.50;101536.00;5011148;28;20402;-85
2022/04/10 04:54:50;;;;;;;5.05;3.20;;;;;;;9.80;37.53;101535.25;5008775;28;20120;-84
2022/04/10 04:57:17;;;;;;;6.25;3.13;;;;;;;9.76;37.89;101543.66;5027259;28;20050;-84
2022/04/10 04:59:44;;;;;;;6.55;3.10;;;;;;;9.73;37.87;101550.09;5005414;28;20537;-85
2022/04/10 05:02:11;;;;;;;4.22;2.78;;;;;;;9.70;37.71;101549.41;4997684;28;20103;-85
2022/04/10 05:04:38;;;;;;;6.60;3.67;;;;;;;9.67;37.94;101552.25;5010850;28;20123;-85
2022/04/10 05:07:05;;;;;;;6.82;3.40;;;;;;;9.65;38.02;101549.63;5017612;28;20497;-84
2022/04/10 05:09:31;;;;;;;6.25;3.58;;;;;;;9.61;38.21;101548.06;5036946;28;20061;-84
2022/04/10 05:11:58;;;;;;;8.30;4.03;;;;;;;9.58;37.94;101553.63;5018448;28;20077;-86
2022/04/10 05:14:24;;;;;;;7.50;3.60;;;;;;;9.57;38.03;101553.69;5012252;28;20050;-87
2022/04/10 05:16:51;;;;;;;5.22;3.28;;;;;;;9.55;38.08;101560.06;5012463;28;20081;-86
2022/04/10 05:19:17;;;;;;;6.25;3.28;;;;;;;9.51;38.06;101558.47;5004271;28;20084;-87
2022/04/10 05:21:45;;;;;;;5.68;3.72;;;;;;;9.49;38.22;101552.25;5011117;28;20088;-87
2022/04/10 05:24:12;;;;;;;7.07;3.70;;;;;;;9.46;38.42;101552.44;5009993;28;20076;-88
2022/04/10 05:26:38;;;;;;;5.78;3.90;;;;;;;9.45;38.49;101556.09;5008250;28;20054;-87
2022/04/10 05:29:05;;;;;;;7.07;3.60;;;;;;;9.44;38.53;101564.28;5004506;28;20065;-86
2022/04/10 05:31:32;;;;;;;6.15;3.53;;;;;;;9.43;38.78;101566.13;5027864;28;20650;-86
2022/04/10 05:33:59;;;;;;;6.20;3.63;;;;;;;9.42;38.94;101567.06;5010801;28;20513;-86
2022/04/10 05:36:25;;;;;;;8.70;3.90;;;;;;;9.42;38.79;101569.78;5003652;28;20137;-87
2022/04/10 05:38:52;;;;;;;6.63;3.55;;;;;;;9.41;39.11;101561.72;5013866;28;20088;-87
2022/04/10 05:41:19;;;;;;;6.50;3.78;;;;;;;9.42;39.10;101568.91;5016830;28;20054;-87
2022/04/10 05:43:45;;;;;;;8.55;4.10;;;;;;;9.41;39.34;101569.84;5011513;28;20061;-85
2022/04/10 05:46:12;;;;;;;8.57;3.80;;;;;;;9.43;39.11;101567.97;5010174;28;20138;-86
2022/04/10 05:48:38;;;;;;;6.10;3.83;;;;;;;9.45;39.46;101571.47;5009158;28;20057;-86
2022/04/10 05:51:07;;;;;;;6.50;3.75;;;;;;;9.48;39.43;101577.59;5004496;28;20054;-86
2022/04/10 05:53:34;;;;;;;7.20;4.57;;;;;;;9.49;39.50;101578.47;5004455;28;20472;-86
2022/04/10 05:56:00;;;;;;;5.20;3.60;;;;;;;9.53;39.79;101580.97;5010260;28;20053;-86
2022/04/10 05:58:27;;;;;;;7.10;4.22;;;;;;;9.57;39.62;101587.09;5016345;28;20410;-86
2022/04/10 06:00:55;;;;;;;7.68;4.40;;;;;;;9.58;39.53;101582.56;5009097;28;20493;-86
2022/04/10 06:03:23;;;;;;;8.02;4.07;;;;;;;9.61;39.57;101583.28;5006767;28;20442;-86
2022/04/10 06:05:49;;;;;;;7.35;4.25;;;;;;;9.64;39.75;101583.13;5008943;28;20064;-86
2022/04/10 06:08:16;;;;;;;6.57;3.92;;;;;;;9.67;39.72;101585.69;5009513;28;20139;-86
2022/04/10 06:10:42;;;;;;;6.35;3.85;;;;;;;9.70;40.25;101598.22;5011430;28;20105;-86
2022/04/10 06:13:10;;;;;;;7.20;4.30;;;;;;;9.75;40.15;101593.41;5010564;28;20437;-86
2022/04/10 06:15:42;;;;;;;6.20;3.72;;;;;;;9.77;40.16;101596.94;5011731;28;20065;-87
2022/04/10 06:18:09;;;;;;;7.07;4.15;;;;;;;9.82;40.48;101601.16;5016150;28;20053;-86
2022/04/10 06:20:35;;;;;;;6.85;4.15;;;;;;;9.87;40.46;101599.09;5026264;28;20077;-84
2022/04/10 06:23:02;;;;;;;8.07;4.22;;;;;;;9.92;40.38;101602.44;5004482;28;20548;-86
2022/04/10 06:25:28;;;;;;;6.85;4.00;;;;;;;9.99;40.48;101608.41;5006617;28;20208;-86
2022/04/10 06:27:56;;;;;;;7.38;4.13;;;;;;;10.05;40.81;101605.38;5006774;28;20038;-86
2022/04/10 06:30:24;;;;;;;7.72;3.83;;;;;;;10.15;40.99;101612.06;5002604;28;20136;-85
2022/04/10 06:32:51;;;;;;;8.95;4.13;;;;;;;10.22;40.81;101613.53;4993712;28;20053;-85
2022/04/10 06:35:19;;;;;;;9.50;5.20;;;;;;;10.34;40.93;101622.00;4998544;28;20476;-86
2022/04/10 06:37:46;;;;;;;8.02;4.50;;;;;;;10.45;40.86;101619.59;5005342;28;20074;-87
2022/04/10 06:40:12;;;;;;;7.80;3.92;;;;;;;10.58;41.22;101615.22;5005214;28;20134;-86
2022/04/10 06:42:40;;;;;;;6.90;3.95;;;;;;;10.70;41.06;101624.56;5007019;28;20481;-85
2022/04/10 06:45:07;;;;;;;6.47;3.67;;;;;;;10.84;41.09;101620.09;4999101;28;20091;-85
2022/04/10 06:47:34;;;;;;;6.55;3.88;;;;;;;10.97;41.00;101623.00;5007878;28;20057;-86
2022/04/10 06:50:01;;;;;;;6.47;3.53;;;;;;;11.11;41.23;101620.41;5007364;28;20057;-82
2022/04/10 06:52:28;;;;;;;6.28;3.30;;;;;;;11.26;40.89;101622.22;5010704;28;20390;-84
2022/04/10 06:54:54;;;;;;;8.55;3.40;;;;;;;11.42;41.20;101627.66;5009000;28;20528;-88
2022/04/10 06:57:21;;;;;;;8.43;4.25;;;;;;;11.57;41.22;101625.88;5009505;28;20092;-85
2022/04/10 06:59:48;;;;;;;5.22;3.58;;;;;;;11.76;41.00;101630.19;5003574;28;20129;-84
2022/04/10 07:02:14;;;;;;;7.07;3.40;;;;;;;11.95;41.29;101629.94;5004988;28;20448;-85
2022/04/10 07:04:41;;;;;;;6.72;3.45;;;;;;;12.17;40.98;101624.97;5005155;28;20061;-86
2022/04/10 07:07:08;;;;;;;5.88;3.20;;;;;;;12.41;41.04;101625.28;4996693;28;20045;-85
2022/04/10 07:09:34;;;;;;;6.05;3.40;;;;;;;12.62;41.00;101620.34;5008299;28;20493;-84
2022/04/10 07:12:01;;;;;;;5.57;3.17;;;;;;;12.87;40.99;101622.38;5005671;28;20050;-83
2022/04/10 07:14:27;;;;;;;4.78;2.95;;;;;;;13.12;40.69;101627.13;4987580;28;20076;-84
2022/04/10 07:16:54;;;;;;;5.28;3.10;;;;;;;13.34;40.46;101631.09;5009037;28;20062;-84
2022/04/10 07:19:21;;;;;;;5.60;3.20;;;;;;;13.57;40.34;101632.31;5004737;28;20068;-83
2022/04/10 07:24:33;;;;;;;5.90;3.25;;;;;;;14.04;39.77;101642.72;4995924;28;20062;-86
2022/04/10 07:26:59;;;;;;;5.50;3.28;;;;;;;14.27;39.62;101641.13;5002301;28;20042;-85
2022/04/10 07:29:26;;;;;;;6.57;3.40;;;;;;;14.50;39.39;101644.13;5003343;28;20117;-86
2022/04/10 07:31:52;;;;;;;7.85;3.50;;;;;;;14.70;38.65;101640.84;5009161;28;20058;-86
2022/04/10 07:34:19;;;;;;;6.13;3.15;;;;;;;14.90;38.62;101631.22;5010247;28;20061;-86
2022/04/10 07:36:46;;;;;;;5.75;3.00;;;;;;;15.09;38.06;101642.56;5016437;28;20089;-86
2022/04/10 07:39:13;;;;;;;7.10;3.17;;;;;;;15.24;37.61;101641.41;5008339;28;20058;-87
2022/04/10 07:41:39;;;;;;;6.10;3.13;;;;;;;15.35;37.20;101651.56;5018634;28;20513;-87
2022/04/10 07:44:06;;;;;;;5.43;3.15;;;;;;;15.43;36.57;101647.28;5010758;28;20137;-86
2022/04/10 07:49:18;;;;;;;5.68;3.33;;;;;;;15.47;35.52;101645.22;5010039;28;20054;-84
2022/04/10 07:51:44;;;;;;;5.47;3.40;;;;;;;15.46;35.54;101655.28;5005174;28;20085;-88
2022/04/10 07:54:11;;;;;;;5.80;3.33;;;;;;;15.45;36.10;101656.25;5027824;28;20509;-87
2022/04/10 07:56:37;;;;;;;5.85;3.78;;;;;;;15.43;35.55;101660.97;5011871;28;20042;-87
2022/04/10 07:59:04;;;;;;;5.72;3.58;;;;;;;15.41;35.77;101665.66;5011171;28;20065;-85
2022/04/10 08:01:34;;;;;;;6.03;3.28;;;;;;;15.39;35.78;101661.31;5011384;28;20054;-82
2022/04/10 08:04:01;;;;;;;5.75;4.00;;;;;;;15.34;35.73;101678.06;5001960;28;20054;-81
2022/04/10 08:06:28;;;;;;;5.32;3.22;;;;;;;15.33;35.56;101667.22;5005414;28;20080;-84
2022/04/10 08:08:54;;;;;;;5.22;3.38;;;;;;;15.33;36.06;101678.16;5006499;28;20046;-84
2022/04/10 08:11:21;;;;;;;5.00;3.13;;;;;;;15.34;36.02;101680.81;5005157;28;20129;-89
2022/04/10 08:13:48;;;;;;;8.13;3.00;;;;;;;15.35;35.99;101688.03;5012737;28;20077;-86
2022/04/10 08:16:15;;;;;;;6.65;3.50;;;;;;;15.39;35.91;101683.22;5013641;28;20571;-84
2022/04/10 08:18:42;;;;;;;5.88;3.15;;;;;;;15.42;35.92;101689.31;5012549;28;20062;-83
2022/04/10 08:21:08;;;;;;;5.45;3.05;;;;;;;15.45;35.53;101696.44;5015678;28;20124;-90
2022/04/10 08:23:35;;;;;;;4.80;2.47;;;;;;;15.47;35.49;101689.88;5003873;28;20050;-86
2022/04/10 08:26:02;;;;;;;6.82;2.67;;;;;;;15.49;35.49;101690.59;5012692;28;20465;-91
2022/04/10 08:28:32;;;;;;;6.07;2.65;;;;;;;15.53;34.82;101699.47;5012398;28;20045;-88
2022/04/10 08:30:59;;;;;;;4.70;2.80;;;;;;;15.51;35.42;101702.31;4995340;28;20046;-86
2022/04/10 08:33:25;;;;;;;5.00;2.38;;;;;;;15.51;35.05;101695.97;5002093;28;20483;-86
2022/04/10 08:35:56;;;;;;;4.25;2.53;;;;;;;15.54;34.53;101695.78;4999245;28;20112;-92
2022/04/10 08:38:23;;;;;;;3.90;2.20;;;;;;;15.51;34.90;101693.25;5000038;28;20088;-88
2022/04/10 08:40:59;;;;;;;5.03;2.50;;;;;;;15.53;34.00;101704.94;4996576;28;20475;-88
2022/04/10 08:43:26;;;;;;;4.70;2.17;;;;;;;15.48;34.72;101705.28;4981213;28;20129;-88
2022/04/10 08:45:57;;;;;;;4.22;1.70;;;;;;;15.49;34.61;101703.41;4993250;28;20548;-83
2022/04/10 08:48:28;;;;;;;3.78;1.58;;;;;;;15.49;34.28;101708.88;4992194;28;20053;-83
2022/04/10 08:50:58;;;;;;;2.72;1.50;;;;;;;15.49;34.21;101700.69;5009360;28;20080;-80
2022/04/10 08:53:25;;;;;;;4.95;1.40;;;;;;;15.49;34.32;101712.50;5006989;28;20497;-81
2022/04/10 08:55:54;;;;;;;3.80;1.90;;;;;;;15.52;34.67;101709.56;5009345;28;20049;-81
2022/04/10 08:58:22;;;;;;;5.07;1.80;;;;;;;15.56;34.31;101710.25;4992577;28;20046;-83
2022/04/10 09:00:54;;;;;;;5.32;2.10;;;;;;;15.59;34.13;101707.25;5004559;28;20056;-84
2022/04/10 09:03:21;;;;;;;4.22;1.90;;;;;;;15.64;34.07;101706.94;5007232;28;20498;-84
2022/04/10 09:06:02;;;;;;;4.00;1.80;;;;;;;15.71;33.35;101716.44;5011750;28;20482;-84
2022/04/10 09:08:29;;;;;;;5.07;1.80;;;;;;;15.69;33.89;101711.06;5001213;28;20046;-85
2022/04/10 09:10:59;;;;;;;3.65;1.60;;;;;;;15.73;34.20;101717.19;5008589;28;20438;-84
2022/04/10 09:13:28;;;;;;;4.68;1.80;;;;;;;15.79;34.08;101714.88;5002354;28;20081;-84
2022/04/10 09:16:06;;;;;;;4.18;2.03;;;;;;;15.84;33.07;101709.91;5007596;28;20075;-83
2022/04/10 09:18:54;;;;;;;4.22;1.75;;;;;;;15.87;33.04;101711.56;5009213;28;20386;-83
2022/04/10 09:21:28;;;;;;;3.85;1.60;;;;;;;15.94;33.05;101708.25;5011881;28;20386;-84
2022/04/10 09:24:13;;;;;;;3.88;1.60;;;;;;;15.97;32.64;101716.22;5009694;28;20062;-84
2022/04/10 09:26:50;;;;;;;2.88;1.35;;;;;;;16.02;32.84;101717.72;5012738;28;20074;-84
2022/04/10 09:29:18;;;;;;;4.07;1.83;;;;;;;16.04;33.11;101718.50;5015316;28;20109;-84
2022/04/10 09:31:45;;;;;;;3.42;1.75;;;;;;;16.07;32.97;101723.72;5008061;28;20416;-84
2022/04/10 09:34:18;;;;;;;3.65;1.70;;;;;;;16.13;32.28;101720.53;4998441;28;20505;-84
2022/04/10 09:37:06;;;;;;;4.75;2.22;;;;;;;16.11;32.85;101722.50;5010106;28;20077;-84
2022/04/10 09:39:36;;;;;;;4.07;1.70;;;;;;;16.13;33.13;101720.53;5010206;28;20533;-85
2022/04/10 09:42:06;;;;;;;3.40;1.55;;;;;;;16.13;32.73;101713.19;5010959;28;20061;-84
2022/04/10 09:44:34;;;;;;;4.15;1.73;;;;;;;16.12;32.48;101719.66;5011409;28;20054;-84
2022/04/10 09:47:03;;;;;;;2.70;1.63;;;;;;;16.10;32.29;101716.16;5009026;28;20146;-84
2022/04/10 09:49:34;;;;;;;2.88;1.63;;;;;;;16.08;32.49;101718.13;5011175;28;20108;-84
2022/04/10 09:52:08;;;;;;;3.28;1.65;;;;;;;16.06;31.61;101711.88;5003975;28;20078;-84
2022/04/10 09:54:43;;;;;;;4.75;1.50;;;;;;;16.01;31.46;101711.38;5006119;28;20092;-85
2022/04/10 09:57:11;;;;;;;4.63;1.70;;;;;;;15.96;32.08;101709.00;5000667;28;20548;-85
2022/04/10 09:59:43;;;;;;;2.17;1.13;;;;;;;15.92;31.54;101710.22;5011642;28;20469;-85
2022/04/10 10:02:12;;;;;;;4.30;1.60;;;;;;;15.86;31.56;101707.94;5001600;28;20381;-85
2022/04/10 10:04:41;;;;;;;3.67;1.58;;;;;;;15.82;31.61;101709.16;5009292;28;20112;-84
2022/04/10 10:07:15;;;;;;;3.20;1.55;;;;;;;15.78;31.14;101710.38;5003535;28;20100;-84
2022/04/10 10:09:42;;;;;;;4.18;1.60;;;;;;;15.70;31.68;101714.69;5009265;28;20136;-83
2022/04/10 10:12:10;;;;;;;5.32;1.50;;;;;;;15.67;31.73;101715.78;5019085;28;20103;-83
2022/04/10 10:14:38;;;;;;;3.00;1.50;;;;;;;15.63;31.31;101716.13;5000151;28;20105;-86
2022/04/10 10:17:07;;;;;;;3.40;1.65;;;;;;;15.58;31.91;101717.34;5005502;28;20042;-87
2022/04/10 10:19:36;;;;;;;3.78;1.40;;;;;;;15.54;31.74;101710.34;5009812;28;20464;-87
2022/04/10 10:22:06;;;;;;;4.10;1.63;;;;;;;15.49;31.73;101704.28;5012422;28;20117;-87
2022/04/10 10:24:45;;;;;;;5.50;1.83;;;;;;;15.49;31.35;101704.28;5008320;28;20061;-87
2022/04/10 10:27:23;;;;;;;3.25;1.50;;;;;;;15.47;32.16;101694.47;5011059;28;20050;-86
2022/04/10 10:29:56;;;;;;;3.45;1.48;;;;;;;15.48;31.63;101685.28;5004661;28;20061;-86
2022/04/10 10:32:41;;;;;;;4.65;1.70;;;;;;;15.47;31.77;101684.41;5007435;28;20045;-84
2022/04/10 10:35:13;;;;;;;3.38;1.50;;;;;;;15.53;31.94;101685.78;5002064;28;20132;-85
2022/04/10 10:37:53;;;;;;;3.05;1.52;;;;;;;15.55;31.46;101689.34;5007559;28;20050;-86
2022/04/10 10:40:21;;;;;;;2.58;1.60;;;;;;;15.60;32.49;101684.38;5004946;28;20089;-84
2022/04/10 10:42:49;;;;;;;4.15;1.70;;;;;;;15.65;31.88;101692.25;5005501;28;20071;-85
2022/04/10 10:45:38;;;;;;;2.45;1.48;;;;;;;15.68;31.34;101694.75;5007444;28;20057;-85
2022/04/10 10:48:31;;;;;;;3.63;1.30;;;;;;;15.69;31.27;101691.91;5005897;28;20482;-84
2022/04/10 10:51:22;;;;;;;3.55;1.35;;;;;;;15.71;31.65;101689.94;5005123;28;20563;-85
2022/04/10 10:53:54;;;;;;;3.42;1.60;;;;;;;15.72;31.66;101691.69;5006450;28;20345;-85
2022/04/10 10:56:32;;;;;;;3.97;1.80;;;;;;;15.71;32.19;101692.66;5011191;28;20049;-87
2022/04/10 10:59:39;;;;;;;4.68;1.90;;;;;;;15.73;32.04;101692.56;5003744;28;20057;-87
2022/04/10 11:02:10;;;;;;;2.88;1.48;;;;;;;15.78;32.48;101687.59;5007311;28;20129;-88
2022/04/10 11:04:57;;;;;;;2.17;1.45;;;;;;;15.81;32.52;101696.44;5000101;28;20120;-88
2022/04/10 11:07:27;;;;;;;4.55;2.17;;;;;;;15.89;32.63;101702.25;5013055;28;20050;-89
2022/04/10 11:09:56;;;;;;;4.10;1.70;;;;;;;15.96;32.53;101688.94;5027855;28;20554;-88
2022/04/10 11:12:34;;;;;;;3.47;1.60;;;;;;;16.08;31.95;101704.44;5013017;28;20108;-89
2022/04/10 11:15:12;;;;;;;3.97;1.60;;;;;;;16.15;32.11;101708.44;5011913;28;20080;-88
2022/04/10 11:17:39;;;;;;;3.75;1.60;;;;;;;16.21;32.10;101701.66;5013181;28;20458;-88
2022/04/10 11:20:09;;;;;;;3.72;1.70;;;;;;;16.30;32.27;101690.84;5011346;28;20489;-88
2022/04/10 11:22:54;;;;;;;2.67;1.50;;;;;;;16.40;31.55;101698.34;5012654;28;20107;-88
2022/04/10 11:25:27;;;;;;;2.55;1.40;;;;;;;16.48;30.97;101702.22;5012502;28;20493;-87
2022/04/10 11:28:04;;;;;;;2.75;1.20;;;;;;;16.52;31.34;101697.38;5012827;28;20506;-88
2022/04/10 11:30:32;;;;;;;2.95;1.30;;;;;;;16.59;31.44;101698.66;5011858;28;20062;-88
2022/04/10 11:32:58;;;;;;;4.18;1.65;;;;;;;16.66;31.64;101689.84;5012786;28;20081;-88
2022/04/10 11:35:30;;;;;;;2.05;1.20;;;;;;;16.74;31.45;101684.63;5012227;28;20058;-88
2022/04/10 11:38:11;;;;;;;1.75;1.08;;;;;;;16.86;30.60;101695.63;5013941;28;20145;-88
2022/04/10 11:40:40;;;;;;;4.05;1.35;;;;;;;16.91;31.42;101690.63;4995610;28;20058;-88
2022/04/10 11:43:08;;;;;;;2.83;1.10;;;;;;;17.00;31.48;101696.25;5001633;28;20073;-88
2022/04/10 11:45:35;;;;;;;2.25;1.20;;;;;;;17.08;30.74;101695.66;5007616;28;20041;-87